Time;durP1;ratioP1;P1;durP2;ratioP2;P2;SDS_P1;SDS_P2;PMS_P1;PMS_P2;Temp;Humidity;BMP_temperature;BMP_pressure;BME280_temperature;BME280_humidity;BME280_pressure;Samples;Min_cycle;Max_cycle;Signal;HPM_P1;HPM_P2
2022/08/03 00:01:05;;;;;;;4.85;2.55;;;21.50;63.30;;;;;;5007175;28;20053;-71
2022/08/03 00:03:32;;;;;;;7.50;2.20;;;21.50;63.40;;;;;;5005830;28;20052;-71
2022/08/03 00:05:59;;;;;;;5.80;2.28;;;21.50;63.50;;;;;;5010891;28;20152;-71
2022/08/03 00:08:26;;;;;;;4.40;2.13;;;21.40;63.50;;;;;;5009396;28;20647;-70
2022/08/03 00:10:54;;;;;;;4.28;2.33;;;21.40;63.50;;;;;;5007615;28;20054;-72
2022/08/03 00:13:21;;;;;;;5.93;2.67;;;21.40;63.60;;;;;;5025109;28;20124;-71
2022/08/03 00:15:48;;;;;;;9.23;2.55;;;21.40;63.70;;;;;;5010385;28;20077;-71
2022/08/03 00:18:15;;;;;;;3.40;2.35;;;21.30;63.80;;;;;;5027365;28;20053;-71
2022/08/03 00:20:42;;;;;;;11.82;3.45;;;21.30;63.70;;;;;;5030301;28;20045;-71
2022/08/03 00:23:08;;;;;;;5.15;2.38;;;21.30;63.70;;;;;;5040936;28;20045;-71
2022/08/03 00:25:35;;;;;;;5.85;2.33;;;21.30;63.80;;;;;;5026354;28;20057;-71
2022/08/03 00:28:03;;;;;;;4.60;2.65;;;21.30;63.80;;;;;;5030080;28;20501;-71
2022/08/03 00:30:30;;;;;;;3.80;2.23;;;21.30;63.70;;;;;;5009172;28;20042;-71
2022/08/03 00:32:57;;;;;;;4.30;2.30;;;21.20;63.70;;;;;;5011810;28;20144;-71
2022/08/03 00:35:24;;;;;;;7.05;2.53;;;21.20;63.80;;;;;;5011277;28;20111;-71
2022/08/03 00:37:51;;;;;;;5.88;2.17;;;21.20;63.70;;;;;;5027569;28;20049;-71
2022/08/03 00:40:18;;;;;;;4.55;2.55;;;21.20;63.70;;;;;;4996883;28;20041;-71
2022/08/03 00:42:56;;;;;;;5.15;2.47;;;21.10;63.80;;;;;;5029297;28;20046;-71
2022/08/03 00:45:24;;;;;;;;;;;21.10;63.90;;;;;;5026289;28;20050;-71
2022/08/03 00:47:51;;;;;;;4.15;2.28;;;21.00;63.80;;;;;;5023620;28;19924;-71
2022/08/03 00:50:19;;;;;;;5.57;2.40;;;21.00;63.80;;;;;;5008476;28;20054;-71
2022/08/03 00:52:46;;;;;;;4.13;2.80;;;21.00;63.80;;;;;;5023715;28;20639;-71
2022/08/03 00:55:13;;;;;;;4.10;2.63;;;21.00;63.70;;;;;;4981292;28;20042;-71
2022/08/03 00:57:41;;;;;;;7.03;2.63;;;21.00;63.60;;;;;;5018745;28;20448;-71
2022/08/03 01:00:09;;;;;;;3.80;2.60;;;21.00;63.70;;;;;;5022210;28;20487;-71
2022/08/03 01:02:37;;;;;;;4.45;2.20;;;20.90;63.50;;;;;;5008574;28;20077;-71
2022/08/03 01:05:05;;;;;;;5.18;2.60;;;20.90;63.50;;;;;;5023704;28;20065;-71
2022/08/03 01:07:55;;;;;;;7.17;2.77;;;20.90;63.50;;;;;;5021188;28;20053;-71
2022/08/03 01:10:27;;;;;;;6.15;2.60;;;20.90;63.40;;;;;;5027717;28;20049;-70
2022/08/03 01:13:15;;;;;;;5.75;2.20;;;20.90;63.50;;;;;;5022510;28;20087;-70
2022/08/03 01:16:08;;;;;;;4.03;2.42;;;20.90;63.60;;;;;;4994611;28;20140;-70
2022/08/03 01:19:02;;;;;;;6.53;2.60;;;20.90;63.60;;;;;;5037016;28;20045;-73
2022/08/03 01:21:56;;;;;;;7.32;2.60;;;20.90;63.40;;;;;;5023070;28;20089;-71
2022/08/03 01:24:36;;;;;;;5.65;2.60;;;20.90;63.50;;;;;;5019135;28;20046;-71
2022/08/03 01:27:50;;;;;;;5.18;2.67;;;20.90;63.10;;;;;;5026693;28;20135;-70
2022/08/03 01:30:16;;;;;;;5.78;2.53;;;20.80;63.70;;;;;;5027205;28;20052;-70
2022/08/03 01:32:55;;;;;;;6.47;2.40;;;20.80;63.60;;;;;;5009320;28;20160;-70
2022/08/03 01:36:00;;;;;;;5.60;2.50;;;20.70;63.70;;;;;;5024607;28;20053;-70
2022/08/03 01:38:35;;;;;;;4.60;2.60;;;20.70;63.80;;;;;;4993207;28;20461;-70
2022/08/03 01:41:07;;;;;;;5.78;2.80;;;20.70;64.10;;;;;;5026376;28;20414;-70
2022/08/03 01:43:34;;;;;;;6.15;2.35;;;20.70;64.20;;;;;;5027122;28;20050;-70
2022/08/03 01:46:00;;;;;;;4.65;2.83;;;20.60;64.10;;;;;;5010518;28;20052;-70
2022/08/03 01:48:27;;;;;;;5.72;2.67;;;20.60;64.30;;;;;;5027517;28;20045;-71
2022/08/03 01:50:54;;;;;;;6.03;2.40;;;20.60;64.20;;;;;;5025745;28;20699;-70
2022/08/03 01:53:21;;;;;;;4.47;2.45;;;20.60;64.30;;;;;;5010558;28;20047;-70
2022/08/03 01:55:51;;;;;;;6.80;2.30;;;20.50;64.20;;;;;;5009501;28;20133;-70
2022/08/03 01:58:18;;;;;;;4.28;2.40;;;20.50;64.20;;;;;;5023113;28;20045;-71
2022/08/03 02:00:44;;;;;;;7.07;2.50;;;20.50;64.20;;;;;;5008198;28;20053;-71
2022/08/03 02:03:11;;;;;;;6.47;2.50;;;20.50;64.30;;;;;;5004228;28;20050;-71
2022/08/03 02:05:39;;;;;;;4.78;2.60;;;20.50;64.30;;;;;;5021006;28;20502;-71
2022/08/03 02:08:07;;;;;;;7.28;2.40;;;20.50;64.20;;;;;;5025477;28;20096;-71
2022/08/03 02:10:35;;;;;;;4.60;2.35;;;20.50;64.40;;;;;;5021554;28;20111;-71
2022/08/03 02:13:04;;;;;;;3.80;2.47;;;20.50;64.40;;;;;;5009348;28;20045;-70
2022/08/03 02:15:32;;;;;;;6.05;2.60;;;20.50;64.50;;;;;;5009083;28;20042;-71
2022/08/03 02:17:59;;;;;;;3.50;2.35;;;20.50;65.20;;;;;;5025256;28;20371;-71
2022/08/03 02:20:26;;;;;;;3.45;2.22;;;20.40;64.60;;;;;;5015753;28;20153;-70
2022/08/03 02:22:53;;;;;;;3.85;2.42;;;20.50;64.60;;;;;;5008335;28;20073;-70
2022/08/03 02:25:19;;;;;;;4.25;2.55;;;20.40;64.80;;;;;;5023741;28;20130;-70
2022/08/03 02:27:57;;;;;;;3.15;2.30;;;20.40;64.90;;;;;;5007579;28;20539;-71
2022/08/03 02:30:32;;;;;;;;;;;20.40;65.40;;;;;;5022100;28;20092;-70
2022/08/03 02:33:00;;;;;;;3.88;2.30;;;20.30;64.90;;;;;;5005177;28;19921;-71
2022/08/03 02:35:27;;;;;;;3.63;2.33;;;20.30;64.80;;;;;;5010462;28;20149;-70
2022/08/03 02:37:58;;;;;;;4.80;2.30;;;20.30;65.10;;;;;;5024957;28;20057;-71
2022/08/03 02:40:26;;;;;;;5.22;2.60;;;20.20;65.00;;;;;;5012591;28;20041;-71
2022/08/03 02:42:55;;;;;;;5.43;2.45;;;20.20;65.20;;;;;;5043640;28;20371;-70
2022/08/03 02:45:22;;;;;;;6.43;2.47;;;20.20;65.30;;;;;;5027638;28;20296;-70
2022/08/03 02:47:49;;;;;;;5.07;2.70;;;20.10;65.30;;;;;;5026844;28;20057;-70
2022/08/03 02:50:16;;;;;;;5.07;2.45;;;20.10;65.30;;;;;;5021056;28;20049;-71
2022/08/03 02:52:42;;;;;;;6.18;2.67;;;20.10;65.30;;;;;;5026393;28;20049;-71
2022/08/03 02:55:09;;;;;;;5.68;2.80;;;20.10;65.40;;;;;;5007688;28;20137;-72
2022/08/03 02:57:36;;;;;;;6.88;2.78;;;20.10;65.40;;;;;;5007683;28;20056;-71
2022/08/03 03:00:04;;;;;;;6.82;2.28;;;20.10;65.50;;;;;;5025361;28;20041;-70
2022/08/03 03:02:32;;;;;;;7.10;2.80;;;20.10;65.40;;;;;;5012661;28;20046;-70
2022/08/03 03:04:59;;;;;;;7.25;3.05;;;20.10;65.40;;;;;;5014535;28;20531;-71
2022/08/03 03:07:26;;;;;;;5.40;2.50;;;20.10;65.40;;;;;;5013442;28;20788;-70
2022/08/03 03:09:53;;;;;;;4.07;2.65;;;20.00;65.60;;;;;;5030595;28;20132;-70
2022/08/03 03:12:19;;;;;;;8.40;2.78;;;20.00;65.90;;;;;;5025798;28;20049;-70
2022/08/03 03:14:45;;;;;;;4.60;2.65;;;19.90;65.90;;;;;;5013100;28;20056;-70
2022/08/03 03:17:13;;;;;;;3.95;2.58;;;20.00;66.00;;;;;;5013006;28;20086;-70
2022/08/03 03:19:40;;;;;;;4.63;2.63;;;20.00;66.20;;;;;;5030696;28;20053;-71
2022/08/03 03:22:07;;;;;;;5.20;2.70;;;19.90;66.00;;;;;;5030540;28;20474;-70
2022/08/03 03:24:34;;;;;;;3.65;2.50;;;19.90;66.10;;;;;;5027283;28;20089;-70
2022/08/03 03:27:02;;;;;;;5.03;2.60;;;19.90;66.00;;;;;;5047304;28;20474;-71
2022/08/03 03:29:29;;;;;;;3.73;2.33;;;19.90;66.00;;;;;;5031024;28;20069;-70
2022/08/03 03:31:56;;;;;;;5.57;2.85;;;19.90;66.10;;;;;;5027114;28;20053;-71
2022/08/03 03:34:23;;;;;;;5.38;2.70;;;19.90;66.00;;;;;;5007172;28;20041;-71
2022/08/03 03:36:50;;;;;;;8.48;2.88;;;19.90;66.00;;;;;;5024926;28;20104;-70
2022/08/03 03:39:17;;;;;;;4.00;2.65;;;19.90;66.40;;;;;;5008121;28;20073;-70
2022/08/03 03:41:44;;;;;;;6.88;2.70;;;19.90;67.10;;;;;;5026228;28;20284;-70
2022/08/03 03:44:11;;;;;;;10.35;3.20;;;19.90;66.80;;;;;;5030776;28;20137;-71
2022/08/03 03:46:37;;;;;;;7.22;3.03;;;19.80;66.70;;;;;;5013914;28;20386;-70
2022/08/03 03:49:05;;;;;;;4.13;2.78;;;19.80;66.70;;;;;;5014008;28;20049;-70
2022/08/03 03:51:33;;;;;;;4.28;2.72;;;19.80;66.60;;;;;;5000797;28;20108;-70
2022/08/03 03:54:04;;;;;;;4.43;2.88;;;19.80;66.90;;;;;;5012535;28;20052;-70
2022/08/03 03:56:32;;;;;;;6.07;3.00;;;19.80;66.90;;;;;;5028134;28;20378;-70
2022/08/03 03:58:58;;;;;;;3.88;2.40;;;19.80;66.70;;;;;;5023557;28;20052;-70
2022/08/03 04:01:26;;;;;;;3.55;2.50;;;19.70;66.80;;;;;;5025139;28;20045;-71
2022/08/03 04:03:53;;;;;;;6.00;2.78;;;19.70;66.80;;;;;;5022903;28;20046;-70
2022/08/03 04:11:54;;;;;;;4.85;2.15;;;19.70;66.90;;;;;;5024687;28;20050;-70
2022/08/03 04:14:28;;;;;;;4.72;2.67;;;19.60;67.10;;;;;;5009084;28;20048;-70
2022/08/03 04:16:57;;;;;;;3.42;2.45;;;19.60;67.20;;;;;;5024369;28;20104;-70
2022/08/03 04:19:46;;;;;;;5.97;2.80;;;19.60;67.20;;;;;;5010273;28;20115;-70
2022/08/03 04:22:18;;;;;;;5.43;2.70;;;19.60;67.20;;;;;;5029721;28;20732;-70
2022/08/03 04:24:49;;;;;;;4.25;2.60;;;19.50;67.20;;;;;;5028808;28;20064;-69
2022/08/03 04:27:20;;;;;;;4.13;2.85;;;19.50;67.40;;;;;;5009108;28;20605;-70
2022/08/03 04:29:48;;;;;;;5.00;2.80;;;19.50;67.60;;;;;;5012014;28;20133;-69
2022/08/03 04:32:15;;;;;;;;;;;19.50;67.60;;;;;;5030540;28;20768;-70
2022/08/03 04:34:43;;;;;;;6.75;2.50;;;19.50;67.70;;;;;;5021647;28;20051;-71
2022/08/03 04:37:17;;;;;;;4.80;2.57;;;19.50;67.70;;;;;;4990538;28;20425;-70
2022/08/03 04:39:44;;;;;;;5.47;2.63;;;19.50;67.60;;;;;;5027106;28;20382;-70
2022/08/03 04:42:11;;;;;;;6.43;2.58;;;19.50;67.50;;;;;;5023955;28;20049;-70
2022/08/03 04:44:39;;;;;;;7.50;2.80;;;19.50;67.80;;;;;;4992127;28;20124;-69
2022/08/03 04:47:08;;;;;;;4.85;2.30;;;19.50;67.80;;;;;;5002462;28;20045;-70
2022/08/03 04:49:40;;;;;;;6.10;2.50;;;19.50;67.60;;;;;;5026720;28;20081;-70
2022/08/03 04:52:11;;;;;;;7.40;2.83;;;19.60;67.60;;;;;;5015187;28;20443;-70
2022/08/03 04:54:45;;;;;;;6.45;2.65;;;19.60;67.50;;;;;;5024969;28;20509;-70
2022/08/03 04:57:12;;;;;;;6.63;2.33;;;19.70;67.60;;;;;;5038243;28;20046;-70
2022/08/03 04:59:39;;;;;;;4.10;2.45;;;19.70;67.40;;;;;;5030449;28;20111;-71
2022/08/03 05:02:06;;;;;;;6.15;2.50;;;19.70;67.20;;;;;;5028516;28;20084;-71
2022/08/03 05:04:33;;;;;;;3.97;2.47;;;19.70;67.30;;;;;;5041293;28;20045;-71
2022/08/03 05:07:01;;;;;;;6.63;2.55;;;19.70;67.30;;;;;;5023559;28;20056;-71
2022/08/03 05:09:28;;;;;;;4.40;2.40;;;19.80;67.30;;;;;;5026570;28;20046;-70
2022/08/03 05:11:55;;;;;;;4.18;2.20;;;19.80;67.30;;;;;;5028441;28;20056;-73
2022/08/03 05:14:22;;;;;;;7.78;2.60;;;19.90;67.30;;;;;;5011067;28;20080;-71
2022/08/03 05:16:49;;;;;;;3.50;2.45;;;19.90;67.10;;;;;;5010798;28;20475;-71
2022/08/03 05:19:16;;;;;;;3.33;2.35;;;20.00;67.00;;;;;;5026490;28;20049;-71
2022/08/03 05:21:42;;;;;;;6.45;2.55;;;20.10;67.00;;;;;;5028854;28;20053;-71
2022/08/03 05:24:08;;;;;;;3.72;2.75;;;20.10;67.10;;;;;;5024623;28;20045;-70
2022/08/03 05:26:33;;;;;;;3.67;2.53;;;20.20;66.90;;;;;;5022518;28;20097;-70
2022/08/03 05:28:59;;;;;;;5.22;2.65;;;20.20;66.80;;;;;;4993167;28;20045;-70
2022/08/03 05:31:25;;;;;;;6.93;2.78;;;20.30;66.70;;;;;;5024671;28;20061;-70
2022/08/03 05:33:50;;;;;;;4.15;2.67;;;20.30;66.60;;;;;;5004862;28;20175;-70
2022/08/03 05:36:16;;;;;;;5.88;2.72;;;20.40;66.60;;;;;;5018933;28;20057;-70
2022/08/03 05:38:42;;;;;;;6.13;2.50;;;20.50;66.40;;;;;;5008837;28;20046;-70
2022/08/03 05:41:10;;;;;;;4.20;2.25;;;20.60;66.20;;;;;;5028557;28;20655;-70
2022/08/03 05:43:36;;;;;;;7.40;3.05;;;20.60;66.10;;;;;;5028519;28;20049;-73
2022/08/03 05:46:02;;;;;;;7.65;3.08;;;20.60;66.00;;;;;;5015215;28;20046;-72
2022/08/03 05:48:28;;;;;;;5.10;2.67;;;20.70;65.90;;;;;;5007584;28;20387;-71
2022/08/03 05:50:53;;;;;;;3.45;2.40;;;20.70;65.90;;;;;;5006390;28;20384;-72
2022/08/03 05:53:19;;;;;;;5.95;2.40;;;20.80;65.80;;;;;;5016369;28;20471;-70
2022/08/03 05:55:45;;;;;;;3.75;2.30;;;20.80;65.80;;;;;;5026208;28;20072;-71
2022/08/03 05:58:11;;;;;;;5.70;2.28;;;20.90;65.50;;;;;;5008169;28;20119;-70
2022/08/03 06:00:37;;;;;;;4.85;2.20;;;20.90;65.40;;;;;;5022782;28;20177;-70
2022/08/03 06:03:02;;;;;;;5.75;2.35;;;21.00;65.40;;;;;;5025240;28;20053;-70
2022/08/03 06:05:28;;;;;;;8.57;2.40;;;21.00;65.20;;;;;;5015105;28;20053;-70
2022/08/03 06:07:54;;;;;;;5.40;2.30;;;21.10;65.10;;;;;;5023619;28;20078;-70
2022/08/03 06:10:20;;;;;;;4.97;2.10;;;21.20;65.10;;;;;;4992221;28;20054;-70
2022/08/03 06:12:48;;;;;;;2.90;2.22;;;21.20;64.90;;;;;;5004842;28;20084;-71
2022/08/03 06:15:14;;;;;;;8.75;2.50;;;21.30;65.00;;;;;;4990388;28;20056;-70
2022/08/03 06:17:46;;;;;;;7.90;2.17;;;21.30;65.10;;;;;;4991910;28;20099;-70
2022/08/03 06:20:12;;;;;;;4.75;2.40;;;21.30;65.10;;;;;;5033892;28;20049;-72
2022/08/03 06:22:38;;;;;;;5.68;2.22;;;21.40;64.90;;;;;;5009083;28;20053;-70
2022/08/03 06:25:05;;;;;;;3.45;2.30;;;21.40;64.70;;;;;;5027231;28;20124;-71
2022/08/03 06:27:30;;;;;;;4.93;2.28;;;21.50;64.60;;;;;;5024150;28;20046;-70
2022/08/03 06:29:56;;;;;;;3.67;2.10;;;21.60;64.90;;;;;;5027812;28;20080;-70
2022/08/03 06:32:22;;;;;;;5.57;2.40;;;21.60;64.70;;;;;;5020867;28;20460;-72
2022/08/03 06:34:48;;;;;;;4.25;2.22;;;21.70;64.70;;;;;;5007660;28;20041;-71
2022/08/03 06:37:13;;;;;;;6.03;2.17;;;21.80;64.50;;;;;;5027908;28;20046;-70
2022/08/03 06:39:39;;;;;;;3.13;2.30;;;21.80;64.30;;;;;;5023392;28;20045;-70
2022/08/03 06:42:05;;;;;;;5.28;2.38;;;22.00;63.70;;;;;;5013831;28;20060;-71
2022/08/03 06:44:31;;;;;;;5.85;2.20;;;22.00;63.40;;;;;;5025876;28;20053;-71
2022/08/03 06:46:57;;;;;;;5.15;2.22;;;22.10;63.00;;;;;;5027915;28;20053;-70
2022/08/03 06:49:23;;;;;;;3.25;2.40;;;22.10;62.80;;;;;;5021476;28;20050;-70
2022/08/03 06:51:51;;;;;;;3.08;2.08;;;22.20;62.70;;;;;;5013835;28;20058;-70
2022/08/03 06:54:17;;;;;;;5.03;2.10;;;22.30;63.30;;;;;;5015963;28;20046;-70
2022/08/03 06:56:42;;;;;;;7.05;2.38;;;22.30;62.40;;;;;;5027245;28;20659;-71
2022/08/03 06:59:08;;;;;;;5.05;2.10;;;22.40;61.80;;;;;;5024085;28;20096;-71
2022/08/03 07:01:34;;;;;;;4.10;2.17;;;22.50;60.70;;;;;;5020202;28;20111;-71
2022/08/03 07:04:00;;;;;;;6.55;2.17;;;22.60;60.90;;;;;;5028100;28;20128;-71
2022/08/03 07:06:25;;;;;;;5.47;2.17;;;22.70;60.70;;;;;;5022136;28;20073;-70
2022/08/03 07:08:51;;;;;;;6.72;1.88;;;22.80;60.00;;;;;;5019238;28;20079;-71
2022/08/03 07:11:17;;;;;;;10.13;2.00;;;22.90;60.20;;;;;;5023821;28;20057;-70
2022/08/03 07:13:43;;;;;;;3.50;2.05;;;22.90;59.50;;;;;;5021564;28;20053;-71
2022/08/03 07:16:09;;;;;;;4.43;2.10;;;23.00;59.60;;;;;;5008126;28;20052;-70
2022/08/03 07:18:38;;;;;;;4.90;2.17;;;23.20;59.50;;;;;;5028159;28;20483;-71
2022/08/03 07:21:04;;;;;;;5.55;2.10;;;23.20;59.10;;;;;;5024098;28;20531;-71
2022/08/03 07:23:29;;;;;;;5.18;2.25;;;23.30;59.60;;;;;;5025199;28;20057;-71
2022/08/03 07:25:55;;;;;;;3.63;2.22;;;23.30;59.60;;;;;;5006984;28;20057;-71
2022/08/03 07:28:21;;;;;;;6.60;2.08;;;23.40;59.80;;;;;;5027815;28;20135;-72
2022/08/03 07:30:47;;;;;;;4.88;2.40;;;23.40;59.80;;;;;;5024144;28;20101;-71
2022/08/03 07:33:13;;;;;;;6.00;2.15;;;23.50;59.60;;;;;;5007445;28;20155;-72
2022/08/03 07:35:38;;;;;;;5.40;2.78;;;23.70;57.60;;;;;;5007239;28;20046;-71
2022/08/03 07:38:04;;;;;;;5.18;3.00;;;23.80;57.90;;;;;;5010934;28;20143;-70
2022/08/03 07:40:30;;;;;;;8.45;3.20;;;24.00;56.90;;;;;;5026436;28;20743;-70
2022/08/03 07:42:57;;;;;;;9.27;3.30;;;24.00;57.20;;;;;;5021226;28;20110;-72
2022/08/03 07:45:23;;;;;;;6.60;3.00;;;24.00;56.90;;;;;;5022619;28;20061;-73
2022/08/03 07:47:49;;;;;;;6.35;2.65;;;24.10;57.40;;;;;;5028467;28;20045;-72
2022/08/03 07:50:14;;;;;;;9.77;3.10;;;24.20;57.90;;;;;;4997543;28;20049;-72
2022/08/03 07:52:51;;;;;;;6.13;2.90;;;24.30;57.80;;;;;;5021974;28;20183;-73
2022/08/03 07:55:18;;;;;;;7.78;3.10;;;24.40;56.40;;;;;;5029561;28;20053;-71
2022/08/03 07:57:44;;;;;;;10.00;2.65;;;24.50;57.00;;;;;;5028394;28;20054;-70
2022/08/03 08:00:15;;;;;;;7.88;3.00;;;24.60;57.10;;;;;;5040415;28;20049;-70
2022/08/03 08:02:41;;;;;;;6.90;2.63;;;24.60;56.80;;;;;;5034396;28;20083;-71
2022/08/03 08:05:09;;;;;;;4.22;2.67;;;24.60;57.10;;;;;;5028787;28;20079;-71
2022/08/03 08:07:36;;;;;;;7.82;2.53;;;24.60;57.00;;;;;;5030279;28;20461;-69
2022/08/03 08:10:03;;;;;;;4.70;2.45;;;24.70;57.00;;;;;;5012012;28;20725;-71
2022/08/03 08:12:29;;;;;;;6.97;2.50;;;24.80;56.80;;;;;;5023406;28;20099;-71
2022/08/03 08:14:55;;;;;;;7.20;2.50;;;24.90;56.60;;;;;;5025904;28;20041;-71
2022/08/03 08:17:20;;;;;;;7.10;2.80;;;24.90;57.10;;;;;;5027997;28;20123;-71
2022/08/03 08:19:46;;;;;;;8.48;2.70;;;25.10;56.40;;;;;;5029504;28;20045;-70
2022/08/03 08:22:12;;;;;;;5.90;2.70;;;25.20;55.70;;;;;;5010085;28;20056;-71
2022/08/03 08:24:38;;;;;;;13.02;2.95;;;25.30;55.60;;;;;;5009229;28;20080;-70
2022/08/03 08:27:03;;;;;;;8.02;2.60;;;25.40;55.00;;;;;;5024555;28;20115;-72
2022/08/03 08:29:29;;;;;;;6.03;2.38;;;25.30;55.20;;;;;;5029780;28;20107;-71
2022/08/03 08:31:55;;;;;;;5.00;2.80;;;25.40;55.20;;;;;;5027922;28;20458;-72
2022/08/03 08:34:21;;;;;;;8.02;2.60;;;25.50;54.60;;;;;;5022826;28;20771;-72
2022/08/03 08:36:47;;;;;;;156.73;12.88;;;25.70;53.80;;;;;;5024769;28;20056;-72
2022/08/03 08:39:13;;;;;;;6.40;2.00;;;25.80;52.70;;;;;;5045697;28;20383;-70
2022/08/03 08:41:38;;;;;;;4.78;1.90;;;26.00;52.40;;;;;;4996072;28;20058;-71
2022/08/03 08:44:06;;;;;;;4.78;2.08;;;25.90;52.80;;;;;;5045301;28;20083;-70
2022/08/03 08:46:32;;;;;;;;;;;26.00;52.50;;;;;;5009288;28;20093;-69
2022/08/03 08:48:58;;;;;;;3.35;1.80;;;26.30;52.20;;;;;;5027153;28;19960;-71
2022/08/03 08:51:28;;;;;;;4.07;1.70;;;26.30;52.00;;;;;;5007250;28;20061;-71
2022/08/03 08:53:54;;;;;;;6.22;1.75;;;26.40;51.60;;;;;;5010204;28;20074;-70
2022/08/03 08:56:21;;;;;;;4.80;1.70;;;26.50;51.90;;;;;;5024133;28;20615;-70
2022/08/03 08:58:51;;;;;;;3.33;1.60;;;26.60;51.60;;;;;;5007856;28;20124;-70
2022/08/03 09:01:18;;;;;;;6.55;1.95;;;26.60;51.50;;;;;;5005957;28;20089;-71
2022/08/03 09:03:45;;;;;;;2.25;1.85;;;26.60;50.90;;;;;;5015368;28;20060;-72
2022/08/03 09:06:11;;;;;;;13.75;1.80;;;26.70;51.40;;;;;;5027979;28;20045;-70
2022/08/03 09:08:36;;;;;;;3.03;2.00;;;26.70;51.40;;;;;;5029127;28;20056;-71
2022/08/03 09:11:02;;;;;;;4.57;2.17;;;26.90;50.40;;;;;;5012438;28;20060;-70
2022/08/03 09:13:29;;;;;;;4.97;1.98;;;27.00;50.50;;;;;;5026058;28;20398;-72
2022/08/03 09:16:15;;;;;;;3.75;2.00;;;27.00;50.50;;;;;;5027929;28;20438;-70
2022/08/03 09:18:41;;;;;;;3.20;1.98;;;27.00;51.30;;;;;;5028185;28;20060;-70
2022/08/03 09:21:17;;;;;;;5.00;1.92;;;27.10;50.30;;;;;;5008751;28;20045;-71
2022/08/03 09:23:45;;;;;;;7.93;1.88;;;27.10;49.50;;;;;;5028503;28;20052;-71
2022/08/03 09:26:11;;;;;;;8.52;1.80;;;27.30;48.90;;;;;;5028635;28;20057;-70
2022/08/03 09:28:36;;;;;;;3.25;1.60;;;27.20;49.00;;;;;;5023918;28;20055;-71
2022/08/03 09:31:02;;;;;;;2.72;1.75;;;27.10;49.20;;;;;;5024761;28;20585;-70
2022/08/03 09:33:28;;;;;;;2.92;1.90;;;27.30;49.70;;;;;;5025189;28;20050;-71
2022/08/03 09:35:55;;;;;;;4.50;1.70;;;27.30;48.20;;;;;;5026247;28;20112;-70
2022/08/03 09:38:27;;;;;;;5.20;1.85;;;27.40;48.70;;;;;;5029574;28;20041;-71
2022/08/03 09:40:53;;;;;;;4.93;1.73;;;27.40;48.70;;;;;;5023445;28;20371;-71
2022/08/03 09:43:19;;;;;;;2.65;1.50;;;27.40;49.70;;;;;;5026737;28;20049;-70
2022/08/03 09:45:45;;;;;;;3.50;1.70;;;27.50;49.30;;;;;;5010751;28;20049;-70
2022/08/03 09:48:24;;;;;;;4.40;1.90;;;27.60;48.20;;;;;;5022829;28;20062;-69
2022/08/03 09:50:54;;;;;;;5.38;1.90;;;27.60;48.90;;;;;;5024459;28;20475;-71
2022/08/03 09:53:20;;;;;;;2.72;1.95;;;27.70;48.90;;;;;;5026014;28;20060;-70
2022/08/03 09:55:51;;;;;;;4.60;1.80;;;27.80;48.10;;;;;;5028226;28;20037;-70
2022/08/03 09:58:17;;;;;;;5.68;1.95;;;27.90;47.40;;;;;;5024807;28;20077;-70
2022/08/03 10:00:56;;;;;;;3.03;1.90;;;27.80;47.30;;;;;;5021662;28;20076;-71
2022/08/03 10:03:22;;;;;;;3.60;1.83;;;27.80;47.90;;;;;;5006791;28;20061;-71
2022/08/03 10:05:48;;;;;;;3.40;1.70;;;27.90;47.50;;;;;;5021106;28;20455;-71
2022/08/03 10:08:14;;;;;;;6.88;2.20;;;27.90;47.20;;;;;;5006457;28;20049;-71
2022/08/03 10:10:44;;;;;;;4.45;1.95;;;28.00;47.20;;;;;;5018015;28;20057;-71
2022/08/03 10:13:13;;;;;;;3.50;1.90;;;28.00;46.50;;;;;;5006058;28;20420;-72
2022/08/03 10:15:39;;;;;;;2.83;1.75;;;28.00;46.60;;;;;;5000567;28;20459;-72
2022/08/03 10:18:05;;;;;;;3.30;1.83;;;28.10;46.10;;;;;;5016988;28;20049;-71
2022/08/03 10:20:31;;;;;;;4.65;2.00;;;28.10;46.40;;;;;;5027040;28;20179;-71
2022/08/03 10:22:57;;;;;;;2.28;1.70;;;28.20;47.00;;;;;;5008153;28;20143;-71
2022/08/03 10:25:23;;;;;;;5.20;1.90;;;28.20;46.50;;;;;;5008615;28;20134;-71
2022/08/03 10:27:49;;;;;;;3.05;1.90;;;28.50;46.20;;;;;;5025337;28;20055;-71
2022/08/03 10:30:14;;;;;;;3.72;1.85;;;28.60;46.10;;;;;;5040695;28;20053;-72
2022/08/03 10:32:42;;;;;;;4.78;1.80;;;28.60;46.10;;;;;;5007471;28;20137;-71
2022/08/03 10:35:12;;;;;;;5.78;1.92;;;28.70;45.90;;;;;;5023417;28;20049;-71
2022/08/03 10:37:58;;;;;;;3.50;1.75;;;28.70;46.10;;;;;;5010440;28;20535;-72
2022/08/03 10:40:25;;;;;;;2.97;1.65;;;28.90;45.40;;;;;;5006586;28;20069;-71
2022/08/03 10:42:53;;;;;;;2.55;1.63;;;28.90;45.60;;;;;;5023115;28;20064;-71
2022/08/03 10:45:20;;;;;;;3.55;2.10;;;29.00;45.70;;;;;;5010635;28;20418;-70
2022/08/03 10:47:50;;;;;;;2.92;1.98;;;29.00;45.20;;;;;;5027659;28;20120;-71
2022/08/03 10:50:15;;;;;;;4.03;1.90;;;29.00;45.10;;;;;;4991306;28;20080;-71
2022/08/03 10:52:57;;;;;;;6.78;1.85;;;29.00;45.50;;;;;;5003368;28;20551;-70
2022/08/03 10:58:36;;;;;;;4.13;1.70;;;29.10;44.90;;;;;;5024952;28;20096;-72
2022/08/03 11:01:06;;;;;;;3.15;1.70;;;29.20;46.30;;;;;;5026035;28;20038;-72
2022/08/03 11:03:32;;;;;;;3.60;1.83;;;29.40;44.60;;;;;;5025788;28;20049;-73
2022/08/03 11:06:17;;;;;;;5.18;1.90;;;29.50;43.40;;;;;;5005330;28;20053;-72
2022/08/03 11:08:44;;;;;;;2.10;1.60;;;29.50;44.20;;;;;;5007903;28;20064;-71
2022/08/03 11:11:16;;;;;;;3.67;1.83;;;29.70;43.90;;;;;;5002367;28;20052;-72
2022/08/03 11:14:10;;;;;;;4.32;1.80;;;29.90;43.80;;;;;;5025439;28;20415;-71
2022/08/03 11:16:41;;;;;;;3.20;1.70;;;29.90;43.70;;;;;;5006623;28;20046;-73
2022/08/03 11:19:08;;;;;;;3.88;1.70;;;30.10;44.10;;;;;;5006152;28;20070;-72
2022/08/03 11:24:40;;;;;;;4.03;2.10;;;29.90;43.90;;;;;;5026257;28;20041;-71
2022/08/03 11:27:26;;;;;;;2.97;1.83;;;29.80;43.90;;;;;;5031342;28;20144;-73
2022/08/03 11:30:08;;;;;;;4.73;1.97;;;29.80;44.00;;;;;;5031386;28;20044;-72
2022/08/03 11:32:37;;;;;;;3.17;1.63;;;29.90;43.10;;;;;;5029369;28;20061;-73
2022/08/03 11:35:10;;;;;;;6.97;1.80;;;29.90;43.10;;;;;;5027462;28;20103;-73
2022/08/03 11:37:56;;;;;;;2.83;1.90;;;29.90;43.10;;;;;;5011118;28;20041;-72
2022/08/03 11:40:41;;;;;;;2.72;2.00;;;30.00;43.10;;;;;;5026707;28;20055;-71
2022/08/03 11:43:29;;;;;;;4.05;1.63;;;29.90;42.20;;;;;;5029390;28;20045;-70
2022/08/03 11:45:58;;;;;;;;;;;30.00;41.90;;;;;;5026566;28;20119;-71
2022/08/03 11:48:36;;;;;;;4.95;1.80;;;30.20;42.70;;;;;;5026172;28;19917;-72
2022/08/03 11:51:03;;;;;;;5.63;2.00;;;30.20;42.90;;;;;;5012814;28;20049;-70
2022/08/03 11:53:28;;;;;;;2.25;1.50;;;30.40;43.00;;;;;;5028182;28;20430;-71
2022/08/03 11:55:57;;;;;;;4.38;1.85;;;30.40;41.30;;;;;;5010448;28;20043;-70
2022/08/03 11:58:23;;;;;;;3.75;1.80;;;30.50;41.50;;;;;;5026766;28;20054;-69
2022/08/03 12:00:49;;;;;;;3.10;1.55;;;30.50;42.20;;;;;;5009327;28;20056;-72
2022/08/03 12:03:16;;;;;;;3.40;1.70;;;30.60;40.90;;;;;;5026410;28;20050;-71
2022/08/03 12:05:50;;;;;;;2.88;1.50;;;30.40;40.30;;;;;;5025946;28;20116;-72
2022/08/03 12:08:18;;;;;;;3.95;1.52;;;30.40;40.50;;;;;;5024739;28;20510;-71
2022/08/03 12:10:48;;;;;;;8.25;1.40;;;30.50;41.10;;;;;;5010433;28;20061;-72
2022/08/03 12:13:14;;;;;;;2.47;1.60;;;30.70;40.20;;;;;;5025894;28;20116;-70
2022/08/03 12:15:40;;;;;;;2.90;1.48;;;30.70;40.30;;;;;;5011082;28;20452;-71
2022/08/03 12:18:14;;;;;;;3.63;1.65;;;31.00;40.60;;;;;;5010050;28;20053;-71
2022/08/03 12:20:40;;;;;;;2.35;1.60;;;31.00;39.90;;;;;;5021934;28;20052;-70
2022/08/03 12:23:06;;;;;;;2.97;1.80;;;31.00;40.10;;;;;;5023993;28;20058;-72
2022/08/03 12:25:33;;;;;;;3.88;1.70;;;31.00;39.80;;;;;;5029115;28;20053;-71
2022/08/03 12:28:17;;;;;;;1.40;1.30;;;31.20;39.90;;;;;;5023800;28;20423;-71
2022/08/03 12:30:47;;;;;;;7.32;2.10;;;31.20;40.90;;;;;;5012978;28;20102;-71
2022/08/03 12:33:23;;;;;;;6.45;1.65;;;31.30;39.40;;;;;;5028801;28;20660;-71
2022/08/03 12:36:06;;;;;;;2.25;1.50;;;31.30;39.50;;;;;;5010557;28;20042;-71
2022/08/03 12:38:34;;;;;;;4.80;1.67;;;31.50;39.20;;;;;;5025091;28;20132;-72
2022/08/03 12:41:10;;;;;;;1.92;1.50;;;31.50;38.70;;;;;;5010619;28;20054;-70
2022/08/03 12:43:36;;;;;;;3.70;1.60;;;31.60;38.40;;;;;;5026290;28;20080;-72
2022/08/03 12:46:15;;;;;;;2.97;1.75;;;31.70;39.00;;;;;;5013050;28;20084;-70
2022/08/03 12:49:10;;;;;;;3.35;1.63;;;31.80;38.70;;;;;;5029589;28;20046;-71
2022/08/03 12:51:57;;;;;;;4.05;1.50;;;31.50;39.20;;;;;;5009083;28;20057;-72
2022/08/03 12:54:25;;;;;;;2.15;1.50;;;31.40;39.30;;;;;;4994370;28;20038;-72
2022/08/03 12:56:58;;;;;;;2.00;1.60;;;31.20;39.60;;;;;;5028792;28;20072;-70
2022/08/03 12:59:28;;;;;;;4.25;1.80;;;31.30;39.60;;;;;;4993194;28;20529;-71
2022/08/03 13:01:54;;;;;;;2.10;1.50;;;31.40;39.00;;;;;;5009772;28;20049;-71
2022/08/03 13:04:36;;;;;;;4.65;1.70;;;31.40;39.20;;;;;;5026193;28;20084;-71
2022/08/03 13:07:03;;;;;;;5.65;1.73;;;31.40;40.10;;;;;;4989649;28;20069;-71
2022/08/03 13:09:31;;;;;;;5.05;1.60;;;31.30;39.80;;;;;;5023088;28;20064;-71